California City, California
Current Conditions -  °F | °C
As of 6:55 AM on Thursday 23 Oct 2014 (Local Time) from KMHV Reporting Station
Clear Clear  
Wind Chill: 50°   Ceiling: Unl
Heat Index: 50°   Visibility: 10mi
Dew Point: 27°   Wind: 5mph
Humidity: 40%   Direction: 360°N
Pressure: 30.07"   Gusts: NA
Location:  35.13°N, 117.98°W
Report Text: KMHV 231355Z AUTO 36004KT 10SM CLR 10/M03 A3007 RMK AO1
Loading
Personal Weather Stations






























Interactive Weather Map
Tropical Storm Tracking
New forecast layout! Learn more

10-Day Weather Forecast

Advertisements
Track Severe Weather on mobile